createdAt,value
2019-02-27T00:00:37.343Z,102410.42
2019-02-27T00:01:49.697Z,102410.89
2019-02-27T00:02:56.155Z,102412.52
2019-02-27T00:04:02.520Z,102411.49
2019-02-27T00:05:09.444Z,102410.70
2019-02-27T00:06:15.888Z,102410.59
2019-02-27T00:07:21.883Z,102413.59
2019-02-27T00:08:28.873Z,102413.08
2019-02-27T00:09:34.574Z,102406.95
2019-02-27T00:10:40.324Z,102401.15
2019-02-27T00:11:46.844Z,102398.42
2019-02-27T00:12:52.651Z,102411.97
2019-02-27T00:13:58.924Z,102400.52
2019-02-27T00:15:05.950Z,102398.31
2019-02-27T00:16:12.122Z,102402.65
2019-02-27T00:17:18.845Z,102399.53
2019-02-27T00:18:25.971Z,102393.69
2019-02-27T00:19:32.163Z,102396.69
2019-02-27T00:20:39.033Z,102396.61
2019-02-27T00:21:45.273Z,102398.91
2019-02-27T00:22:51.631Z,102402.14
2019-02-27T00:23:58.136Z,102401.62
2019-02-27T00:25:04.853Z,102406.72
2019-02-27T00:26:10.775Z,102401.82
2019-02-27T00:27:17.076Z,102402.61
2019-02-27T00:28:23.987Z,102402.61
2019-02-27T00:29:29.889Z,102397.20
2019-02-27T00:30:38.102Z,102396.69
2019-02-27T00:31:46.079Z,102395.86
2019-02-27T00:32:51.907Z,102397.75
2019-02-27T00:33:59.842Z,102396.20
2019-02-27T00:35:07.258Z,102390.80
2019-02-27T00:36:12.941Z,102381.88
2019-02-27T00:37:19.516Z,102379.46
2019-02-27T00:38:25.820Z,102375.11
2019-02-27T00:39:31.824Z,102366.38
2019-02-27T00:40:39.342Z,102369.57
2019-02-27T00:41:46.037Z,102365.94
2019-02-27T00:42:54.448Z,102370.34
2019-02-27T00:44:02.694Z,102360.20
2019-02-27T00:45:11.374Z,102363.60
2019-02-27T00:46:17.624Z,102368.92
2019-02-27T00:47:24.777Z,102370.04
2019-02-27T00:48:31.745Z,102368.85
2019-02-27T00:49:37.634Z,102375.84
2019-02-27T00:50:44.385Z,102373.36
2019-02-27T00:51:50.132Z,102381.24
2019-02-27T00:52:56.484Z,102378.17
2019-02-27T00:54:03.442Z,102378.17
2019-02-27T00:55:10.305Z,102378.87
2019-02-27T00:56:16.914Z,102371.13
2019-02-27T00:57:23.135Z,102371.02
2019-02-27T00:58:29.533Z,102376.34
2019-02-27T00:59:37.294Z,102369.52
2019-02-27T01:01:02.820Z,102371.22
2019-02-27T01:02:09.717Z,102364.55
2019-02-27T01:03:16.605Z,102368.03
2019-02-27T01:04:22.354Z,102367.64
2019-02-27T01:05:30.095Z,102372.45
2019-02-27T01:06:36.986Z,102374.38
2019-02-27T01:07:43.464Z,102370.36
2019-02-27T01:08:49.675Z,102370.23
2019-02-27T01:09:55.953Z,102377.45
2019-02-27T01:11:03.089Z,102375.24
2019-02-27T01:12:09.474Z,102374.45
2019-02-27T01:13:16.164Z,102372.13
2019-02-27T01:14:25.677Z,102370.04
2019-02-27T01:15:31.938Z,102368.22
2019-02-27T01:16:38.676Z,102365.14
2019-02-27T01:17:45.149Z,102365.63
2019-02-27T01:18:51.886Z,102363.02
2019-02-27T01:19:58.124Z,102370.04
2019-02-27T01:21:05.092Z,102380.57
2019-02-27T01:22:11.383Z,102381.36
2019-02-27T01:23:18.014Z,102386.05
2019-02-27T01:24:23.694Z,102383.05
2019-02-27T01:25:30.667Z,102378.75
2019-02-27T01:26:37.584Z,102381.24
2019-02-27T01:27:44.506Z,102375.24
2019-02-27T01:28:51.574Z,102375.13
2019-02-27T01:29:57.894Z,102370.11
2019-02-27T01:31:04.178Z,102377.41
2019-02-27T01:32:10.245Z,102374.64
2019-02-27T01:33:15.964Z,102371.53
2019-02-27T01:34:22.918Z,102369.59
2019-02-27T01:35:28.585Z,102371.00
2019-02-27T01:36:34.300Z,102368.07
2019-02-27T01:37:39.930Z,102364.95
2019-02-27T01:38:46.924Z,102363.34
2019-02-27T01:39:52.650Z,102367.37
2019-02-27T01:40:58.297Z,102373.60
2019-02-27T01:42:05.493Z,102362.80
2019-02-27T01:43:11.456Z,102364.81
2019-02-27T01:44:18.284Z,102369.91
2019-02-27T01:45:25.344Z,102370.42
2019-02-27T01:46:31.314Z,102369.91
2019-02-27T01:47:37.854Z,102363.79
2019-02-27T01:48:44.287Z,102375.04
2019-02-27T01:49:49.971Z,102372.44
2019-02-27T01:50:55.872Z,102372.52
2019-02-27T01:52:03.225Z,102373.36
2019-02-27T01:53:11.304Z,102372.57
2019-02-27T01:54:17.514Z,102369.97
2019-02-27T01:55:24.486Z,102376.08
2019-02-27T01:56:31.785Z,102377.08
2019-02-27T01:57:38.494Z,102376.59
2019-02-27T01:58:45.004Z,102380.00
2019-02-27T01:59:51.384Z,102377.39
2019-02-27T02:00:57.593Z,102376.33
2019-02-27T02:02:04.222Z,102379.02
2019-02-27T02:03:11.217Z,102379.53
2019-02-27T02:04:20.055Z,102376.94
2019-02-27T02:05:27.216Z,102375.95
2019-02-27T02:06:33.076Z,102371.65
2019-02-27T02:07:40.376Z,102375.55
2019-02-27T02:08:48.261Z,102368.92
2019-02-27T02:09:55.246Z,102360.01
2019-02-27T02:11:02.035Z,102356.22
2019-02-27T02:12:14.093Z,102358.83
2019-02-27T02:13:25.402Z,102354.12
2019-02-27T02:15:03.658Z,102350.41
2019-02-27T02:16:25.164Z,102349.20
2019-02-27T02:17:57.088Z,102344.38
2019-02-27T02:19:22.645Z,102351.41
2019-02-27T02:20:51.218Z,102350.61
2019-02-27T02:22:06.133Z,102341.61
2019-02-27T02:23:34.536Z,102346.71
2019-02-27T02:24:58.783Z,102347.85
2019-02-27T02:26:24.885Z,102337.59
2019-02-27T02:28:12.094Z,102343.12
2019-02-27T02:29:46.134Z,102340.31
2019-02-27T02:31:21.084Z,102342.28
2019-02-27T02:33:04.180Z,102332.94
2019-02-27T02:34:39.845Z,102331.63
2019-02-27T02:36:02.648Z,102336.75
2019-02-27T02:37:41.568Z,102326.62
2019-02-27T02:39:19.435Z,102332.53
2019-02-27T02:40:44.382Z,102332.14
2019-02-27T02:42:15.917Z,102337.55
2019-02-27T02:44:07.409Z,102328.31
2019-02-27T02:45:42.726Z,102324.02
2019-02-27T02:47:01.633Z,102315.88
2019-02-27T02:48:27.805Z,102317.70
2019-02-27T02:50:17.448Z,102319.00
2019-02-27T02:51:43.804Z,102310.79
2019-02-27T02:53:03.468Z,102306.25
2019-02-27T02:54:39.332Z,102306.95
2019-02-27T02:56:04.702Z,102299.30
2019-02-27T02:57:41.062Z,102302.92
2019-02-27T02:59:09.877Z,102300.48
2019-02-27T03:00:39.345Z,102295.86
2019-02-27T03:01:56.617Z,102297.08
2019-02-27T03:03:15.847Z,102301.45
2019-02-27T03:04:55.817Z,102300.27
2019-02-27T03:06:21.185Z,102288.05
2019-02-27T03:08:01.910Z,102284.86
2019-02-27T03:09:30.664Z,102289.47
2019-02-27T03:11:19.078Z,102282.84
2019-02-27T03:12:43.367Z,102283.23
2019-02-27T03:14:17.271Z,102278.22
2019-02-27T03:15:49.920Z,102282.20
2019-02-27T03:17:25.433Z,102289.80
2019-02-27T03:18:50.868Z,102281.28
2019-02-27T03:20:19.510Z,102278.41
2019-02-27T03:21:42.279Z,102278.41
2019-02-27T03:23:07.549Z,102276.67
2019-02-27T03:24:43.825Z,102271.47
2019-02-27T03:26:16.416Z,102277.39
2019-02-27T03:27:55.807Z,102277.30
2019-02-27T03:29:25.407Z,102274.58
2019-02-27T03:30:40.237Z,102278.16
2019-02-27T03:32:05.480Z,102276.73
2019-02-27T03:33:48.373Z,102284.84
2019-02-27T03:35:47.291Z,102272.11
2019-02-27T03:37:15.435Z,102272.42
2019-02-27T03:38:25.764Z,102266.63
2019-02-27T03:39:51.378Z,102267.83
2019-02-27T03:41:39.018Z,102263.53
2019-02-27T03:42:52.646Z,102262.74
2019-02-27T03:44:28.577Z,102264.05
2019-02-27T03:46:17.193Z,102264.16
2019-02-27T03:47:33.747Z,102261.06
2019-02-27T03:48:46.148Z,102255.46
2019-02-27T03:50:21.786Z,102255.70
2019-02-27T03:51:43.056Z,102250.97
2019-02-27T03:53:16.123Z,102250.18
2019-02-27T03:55:03.085Z,102247.58
2019-02-27T03:56:30.066Z,102252.91
2019-02-27T03:58:06.546Z,102247.30
2019-02-27T03:59:42.073Z,102246.39
2019-02-27T04:01:04.315Z,102252.20
2019-02-27T04:02:44.161Z,102259.81
2019-02-27T04:04:35.816Z,102252.00
2019-02-27T04:06:11.935Z,102258.11
2019-02-27T04:07:34.257Z,102251.55
2019-02-27T04:08:45.031Z,102257.92
2019-02-27T04:09:54.827Z,102255.20
2019-02-27T04:10:58.427Z,102256.30
2019-02-27T04:12:04.209Z,102260.47
2019-02-27T04:13:10.138Z,102259.09
2019-02-27T04:14:30.925Z,102260.39
2019-02-27T04:15:38.068Z,102251.16
2019-02-27T04:16:43.837Z,102253.16
2019-02-27T04:17:51.775Z,102253.83
2019-02-27T04:18:55.727Z,102259.03
2019-02-27T04:20:01.770Z,102253.95
2019-02-27T04:21:08.987Z,102255.85
2019-02-27T04:22:14.710Z,102254.16
2019-02-27T04:23:21.262Z,102251.37
2019-02-27T04:24:28.347Z,102249.48
2019-02-27T04:25:34.231Z,102249.72
2019-02-27T04:26:41.871Z,102239.80
2019-02-27T04:27:48.005Z,102236.28
2019-02-27T04:28:53.966Z,102237.91
2019-02-27T04:30:00.056Z,102232.50
2019-02-27T04:31:06.166Z,102236.71
2019-02-27T04:32:13.247Z,102235.30
2019-02-27T04:33:22.905Z,102233.99
2019-02-27T04:34:26.474Z,102226.19
2019-02-27T04:35:34.206Z,102228.52
2019-02-27T04:36:39.675Z,102231.25
2019-02-27T04:37:45.416Z,102227.03
2019-02-27T04:38:51.048Z,102224.16
2019-02-27T04:39:56.696Z,102228.45
2019-02-27T04:41:02.456Z,102224.75
2019-02-27T04:42:08.402Z,102220.05
2019-02-27T04:43:14.956Z,102222.27
2019-02-27T04:44:21.555Z,102219.34
2019-02-27T04:45:27.841Z,102221.28
2019-02-27T04:46:34.777Z,102221.88
2019-02-27T04:47:41.575Z,102216.19
2019-02-27T04:48:48.674Z,102213.08
2019-02-27T04:49:55.446Z,102213.39
2019-02-27T04:51:02.534Z,102205.47
2019-02-27T04:52:08.842Z,102205.70
2019-02-27T04:53:15.749Z,102198.28
2019-02-27T04:54:21.462Z,102195.60
2019-02-27T04:55:28.776Z,102189.17
2019-02-27T04:56:36.006Z,102193.08
2019-02-27T04:57:43.102Z,102188.30
2019-02-27T04:58:50.347Z,102178.47
2019-02-27T04:59:57.174Z,102190.30
2019-02-27T05:01:02.870Z,102184.62
2019-02-27T05:02:08.611Z,102187.50
2019-02-27T05:03:14.333Z,102181.78
2019-02-27T05:04:21.728Z,102178.27
2019-02-27T05:05:27.469Z,102170.06
2019-02-27T05:06:33.199Z,102172.59
2019-02-27T05:07:38.814Z,102173.98
2019-02-27T05:08:44.519Z,102168.58
2019-02-27T05:09:50.201Z,102168.58
2019-02-27T05:10:55.864Z,102172.87
2019-02-27T05:12:01.596Z,102173.67
2019-02-27T05:13:08.069Z,102164.16
2019-02-27T05:14:13.979Z,102164.75
2019-02-27T05:15:20.764Z,102174.97
2019-02-27T05:16:27.670Z,102167.16
2019-02-27T05:17:33.388Z,102167.98
2019-02-27T05:18:39.956Z,102162.94
2019-02-27T05:19:46.339Z,102164.67
2019-02-27T05:20:52.686Z,102164.55
2019-02-27T05:22:01.141Z,102161.44
2019-02-27T05:23:07.039Z,102159.86
2019-02-27T05:24:13.796Z,102161.05
2019-02-27T05:25:20.386Z,102162.35
2019-02-27T05:26:27.339Z,102161.05
2019-02-27T05:27:34.239Z,102159.86
2019-02-27T05:28:40.319Z,102161.95
2019-02-27T05:29:46.190Z,102161.44
2019-02-27T05:30:52.547Z,102156.63
2019-02-27T05:31:59.167Z,102155.45
2019-02-27T05:33:06.416Z,102155.36
2019-02-27T05:34:13.607Z,102146.95
2019-02-27T05:35:23.582Z,102149.05
2019-02-27T05:36:29.020Z,102142.73
2019-02-27T05:37:36.133Z,102154.05
2019-02-27T05:38:43.534Z,102148.64
2019-02-27T05:39:51.229Z,102150.16
2019-02-27T05:40:59.843Z,102144.94
2019-02-27T05:42:06.382Z,102151.92
2019-02-27T05:43:14.060Z,102149.13
2019-02-27T05:44:22.130Z,102146.92
2019-02-27T05:45:31.170Z,102149.05
2019-02-27T05:46:38.404Z,102151.66
2019-02-27T05:47:45.995Z,102141.13
2019-02-27T05:48:53.350Z,102146.03
2019-02-27T05:50:00.462Z,102148.32
2019-02-27T05:51:07.693Z,102147.62
2019-02-27T05:52:27.512Z,102153.73
2019-02-27T05:53:35.441Z,102148.52
2019-02-27T05:54:42.101Z,102145.80
2019-02-27T05:55:48.400Z,102148.52
2019-02-27T05:56:57.372Z,102144.22
2019-02-27T05:58:04.172Z,102146.59
2019-02-27T05:59:10.811Z,102140.20
2019-02-27T06:00:21.742Z,102137.61
2019-02-27T06:01:27.781Z,102141.91
2019-02-27T06:02:34.772Z,102139.19
2019-02-27T06:03:41.672Z,102136.86
2019-02-27T06:04:48.081Z,102144.00
2019-02-27T06:05:54.373Z,102138.59
2019-02-27T06:07:03.440Z,102137.69
2019-02-27T06:08:08.951Z,102137.29
2019-02-27T06:09:14.511Z,102137.41
2019-02-27T06:10:20.905Z,102141.50
2019-02-27T06:11:29.548Z,102143.83
2019-02-27T06:12:38.186Z,102140.91
2019-02-27T06:13:45.029Z,102141.41
2019-02-27T06:14:54.800Z,102141.10
2019-02-27T06:16:02.903Z,102144.61
2019-02-27T06:17:17.116Z,102141.61
2019-02-27T06:18:23.807Z,102133.59
2019-02-27T06:19:33.582Z,102139.51
2019-02-27T06:20:38.964Z,102141.42
2019-02-27T06:21:46.720Z,102143.14
2019-02-27T06:22:53.232Z,102142.95
2019-02-27T06:23:59.714Z,102136.41
2019-02-27T06:25:09.395Z,102134.41
2019-02-27T06:26:16.105Z,102130.27
2019-02-27T06:27:23.812Z,102127.81
2019-02-27T06:28:30.344Z,102126.40
2019-02-27T06:29:36.692Z,102121.25
2019-02-27T06:30:42.459Z,102122.56
2019-02-27T06:31:48.794Z,102121.58
2019-02-27T06:32:55.119Z,102122.88
2019-02-27T06:34:06.577Z,102118.29
2019-02-27T06:35:14.474Z,102117.78
2019-02-27T06:36:20.175Z,102117.67
2019-02-27T06:37:25.915Z,102113.58
2019-02-27T06:38:31.645Z,102115.17
2019-02-27T06:39:37.192Z,102108.98
2019-02-27T06:40:42.980Z,102109.89
2019-02-27T06:41:49.742Z,102113.69
2019-02-27T06:42:56.938Z,102102.21
2019-02-27T06:44:03.220Z,102104.13
2019-02-27T06:45:16.021Z,102101.98
2019-02-27T06:46:21.793Z,102098.97
2019-02-27T06:47:28.154Z,102095.52
2019-02-27T06:48:34.998Z,102097.38
2019-02-27T06:49:41.201Z,102097.84
2019-02-27T06:50:47.702Z,102092.09
2019-02-27T06:51:53.559Z,102088.98
2019-02-27T06:53:00.244Z,102095.48
2019-02-27T06:54:07.512Z,102094.28
2019-02-27T06:55:15.051Z,102089.52
2019-02-27T06:56:21.003Z,102085.20
2019-02-27T06:57:27.500Z,102091.83
2019-02-27T06:58:33.521Z,102087.98
2019-02-27T06:59:40.174Z,102091.44
2019-02-27T07:00:46.543Z,102098.13
2019-02-27T07:01:53.345Z,102087.39
2019-02-27T07:03:00.181Z,102088.47
2019-02-27T07:04:08.066Z,102078.19
2019-02-27T07:05:14.168Z,102080.06
2019-02-27T07:06:21.579Z,102080.56
2019-02-27T07:07:28.783Z,102076.85
2019-02-27T07:08:37.861Z,102073.17
2019-02-27T07:09:43.251Z,102070.36
2019-02-27T07:10:50.893Z,102069.72
2019-02-27T07:11:57.211Z,102064.66
2019-02-27T07:13:03.803Z,102060.20
2019-02-27T07:14:09.792Z,102063.55
2019-02-27T07:15:24.732Z,102060.39
2019-02-27T07:16:32.593Z,102061.86
2019-02-27T07:17:38.410Z,102050.77
2019-02-27T07:18:45.182Z,102047.19
2019-02-27T07:19:52.203Z,102047.28
2019-02-27T07:20:58.430Z,102050.96
2019-02-27T07:22:06.316Z,102051.78
2019-02-27T07:23:13.333Z,102049.02
2019-02-27T07:24:19.043Z,102040.03
2019-02-27T07:25:26.244Z,102043.81
2019-02-27T07:26:33.009Z,102042.66
2019-02-27T07:27:44.313Z,102047.92
2019-02-27T07:28:52.619Z,102040.23
2019-02-27T07:30:04.967Z,102036.97
2019-02-27T07:31:17.280Z,102041.80
2019-02-27T07:32:31.319Z,102041.45
2019-02-27T07:33:40.439Z,102034.77
2019-02-27T07:34:49.739Z,102039.44
2019-02-27T07:36:03.324Z,102038.94
2019-02-27T07:37:12.960Z,102040.18
2019-02-27T07:38:25.474Z,102035.10
2019-02-27T07:39:34.734Z,102034.69
2019-02-27T07:40:46.065Z,102035.33
2019-02-27T07:41:55.127Z,102033.52
2019-02-27T07:44:44.631Z,102034.88
2019-02-27T07:45:51.711Z,102038.33
2019-02-27T07:46:59.534Z,102038.47
2019-02-27T07:48:05.164Z,102019.07
2019-02-27T07:49:10.814Z,102025.91
2019-02-27T07:50:18.234Z,102021.08
2019-02-27T07:51:23.960Z,102014.77
2019-02-27T07:52:32.623Z,102012.84
2019-02-27T07:53:36.949Z,102008.82
2019-02-27T07:54:43.175Z,102013.13
2019-02-27T07:55:48.739Z,102011.89
2019-02-27T07:56:54.816Z,102006.39
2019-02-27T07:58:02.163Z,102009.05
2019-02-27T07:59:08.233Z,102012.30
2019-02-27T08:00:26.329Z,102012.17
2019-02-27T08:01:32.653Z,102014.06
2019-02-27T08:02:39.395Z,102014.83
2019-02-27T08:03:45.852Z,102016.91
2019-02-27T08:04:54.685Z,102012.38
2019-02-27T08:06:02.415Z,102016.74
2019-02-27T08:07:10.069Z,102011.03
2019-02-27T08:08:15.123Z,102004.19
2019-02-27T08:09:21.777Z,102013.39
2019-02-27T08:10:27.950Z,102005.33
2019-02-27T08:11:33.562Z,102010.42
2019-02-27T08:12:39.542Z,102008.50
2019-02-27T08:13:45.694Z,102004.85
2019-02-27T08:14:52.324Z,102003.47
2019-02-27T08:15:58.778Z,102000.64
2019-02-27T08:17:17.043Z,101987.76
2019-02-27T08:18:13.886Z,101995.76
2019-02-27T08:19:21.664Z,101988.17
2019-02-27T08:20:27.513Z,101988.29
2019-02-27T08:21:33.662Z,101992.59
2019-02-27T08:22:40.804Z,101982.33
2019-02-27T08:23:46.741Z,101979.00
2019-02-27T08:24:52.941Z,101983.20
2019-02-27T08:25:59.044Z,101985.66
2019-02-27T08:27:07.149Z,101989.91
2019-02-27T08:28:13.462Z,101980.66
2019-02-27T08:29:21.695Z,101976.53
2019-02-27T08:30:29.262Z,101979.84
2019-02-27T08:31:36.274Z,101979.24
2019-02-27T08:32:42.022Z,101976.91
2019-02-27T08:33:47.764Z,101980.59
2019-02-27T08:34:53.495Z,101976.94
2019-02-27T08:35:59.235Z,101977.17
2019-02-27T08:37:04.995Z,101971.34
2019-02-27T08:38:10.743Z,101968.89
2019-02-27T08:39:16.493Z,101964.81
2019-02-27T08:40:25.169Z,101963.00
2019-02-27T08:41:31.467Z,101966.56
2019-02-27T08:42:39.637Z,101960.58
2019-02-27T08:43:44.251Z,101953.83
2019-02-27T08:44:50.286Z,101949.23
2019-02-27T08:45:56.047Z,101953.45
2019-02-27T08:47:04.272Z,101947.98
2019-02-27T08:48:11.536Z,101950.26
2019-02-27T08:49:17.443Z,101952.16
2019-02-27T08:50:25.136Z,101950.19
2019-02-27T08:51:31.413Z,101942.45
2019-02-27T08:52:37.333Z,101947.57
2019-02-27T08:53:44.226Z,101942.92
2019-02-27T08:54:49.845Z,101949.63
2019-02-27T08:55:55.776Z,101950.56
2019-02-27T08:57:04.164Z,101951.56
2019-02-27T08:58:10.448Z,101948.27
2019-02-27T08:59:16.596Z,101953.78
2019-02-27T09:00:32.382Z,101955.10
2019-02-27T09:01:38.204Z,101958.54
2019-02-27T09:02:43.937Z,101946.94
2019-02-27T09:03:50.599Z,101950.38
2019-02-27T09:04:56.237Z,101955.39
2019-02-27T09:06:01.903Z,101946.36
2019-02-27T09:07:07.618Z,101943.38
2019-02-27T09:08:13.265Z,101932.13
2019-02-27T09:09:19.009Z,101941.32
2019-02-27T09:10:28.087Z,101936.47
2019-02-27T09:11:33.364Z,101935.19
2019-02-27T09:12:40.281Z,101926.67
2019-02-27T09:13:46.264Z,101923.05
2019-02-27T09:14:55.879Z,101925.20
2019-02-27T09:16:01.883Z,101925.68
2019-02-27T09:17:08.215Z,101923.05
2019-02-27T09:18:14.252Z,101924.97
2019-02-27T09:19:20.818Z,101917.48
2019-02-27T09:20:27.072Z,101914.34
2019-02-27T09:21:33.434Z,101918.70
2019-02-27T09:22:39.801Z,101915.30
2019-02-27T09:23:46.326Z,101909.06
2019-02-27T09:24:53.430Z,101910.45
2019-02-27T09:26:02.515Z,101910.45
2019-02-27T09:27:08.014Z,101900.69
2019-02-27T09:28:14.003Z,101905.60
2019-02-27T09:29:19.963Z,101902.22
2019-02-27T09:30:30.098Z,101908.58
2019-02-27T09:31:37.739Z,101906.48
2019-02-27T09:32:46.061Z,101897.36
2019-02-27T09:33:53.310Z,101899.66
2019-02-27T09:35:00.278Z,101888.86
2019-02-27T09:36:07.969Z,101885.05
2019-02-27T09:37:13.866Z,101885.20
2019-02-27T09:38:24.102Z,101885.83
2019-02-27T09:39:31.204Z,101877.66
2019-02-27T09:40:38.559Z,101872.05
2019-02-27T09:41:46.891Z,101876.72
2019-02-27T09:42:53.134Z,101879.16
2019-02-27T09:44:01.336Z,101876.84
2019-02-27T09:45:19.712Z,101873.16
2019-02-27T09:46:25.981Z,101869.73
2019-02-27T09:47:31.668Z,101860.64
2019-02-27T09:48:37.655Z,101863.30
2019-02-27T09:49:43.854Z,101857.53
2019-02-27T09:51:12.603Z,101850.09
2019-02-27T09:52:20.114Z,101852.81
2019-02-27T09:53:25.955Z,101853.36
2019-02-27T09:54:33.972Z,101854.34
2019-02-27T09:55:39.794Z,101848.72
2019-02-27T09:56:46.693Z,101849.14
2019-02-27T09:57:52.925Z,101856.27
2019-02-27T09:58:58.847Z,101848.97
2019-02-27T10:00:06.642Z,101840.36
2019-02-27T10:01:16.097Z,101845.83
2019-02-27T10:02:22.016Z,101844.16
2019-02-27T10:03:27.673Z,101842.98
2019-02-27T10:04:33.375Z,101846.94
2019-02-27T10:05:40.854Z,101850.11
2019-02-27T10:06:46.739Z,101847.07
2019-02-27T10:07:52.949Z,101845.41
2019-02-27T10:08:59.742Z,101847.80
2019-02-27T10:10:10.392Z,101840.05
2019-02-27T10:11:19.536Z,101843.77
2019-02-27T10:12:27.745Z,101850.44
2019-02-27T10:13:35.546Z,101846.06
2019-02-27T10:14:42.664Z,101847.86
2019-02-27T10:15:48.854Z,101843.41
2019-02-27T10:16:54.713Z,101851.77
2019-02-27T10:18:02.029Z,101846.84
2019-02-27T10:19:08.304Z,101845.09
2019-02-27T10:20:14.145Z,101846.04
2019-02-27T10:21:20.484Z,101844.38
2019-02-27T10:22:28.833Z,101841.44
2019-02-27T10:23:34.433Z,101835.91
2019-02-27T10:24:40.406Z,101835.61
2019-02-27T10:25:46.762Z,101833.92
2019-02-27T10:26:53.534Z,101828.75
2019-02-27T10:28:04.498Z,101827.56
2019-02-27T10:29:10.915Z,101821.59
2019-02-27T10:30:18.897Z,101824.72
2019-02-27T10:31:25.909Z,101819.75
2019-02-27T10:32:36.421Z,101826.41
2019-02-27T10:33:42.844Z,101828.62
2019-02-27T10:34:47.389Z,101826.05
2019-02-27T10:35:57.547Z,101818.00
2019-02-27T10:37:04.198Z,101827.55
2019-02-27T10:38:10.118Z,101822.99
2019-02-27T10:39:15.806Z,101818.98
2019-02-27T10:40:27.484Z,101820.35
2019-02-27T10:41:33.215Z,101817.77
2019-02-27T10:42:38.849Z,101817.95
2019-02-27T10:43:45.407Z,101819.50
2019-02-27T10:44:51.054Z,101816.60
2019-02-27T10:45:57.917Z,101811.25
2019-02-27T10:47:04.056Z,101811.09
2019-02-27T10:48:12.605Z,101811.62
2019-02-27T10:49:21.547Z,101813.42
2019-02-27T10:50:25.078Z,101809.98
2019-02-27T10:51:31.146Z,101802.11
2019-02-27T10:52:37.789Z,101803.38
2019-02-27T10:53:43.856Z,101800.79
2019-02-27T10:54:50.975Z,101792.02
2019-02-27T10:55:57.488Z,101793.50
2019-02-27T10:57:03.482Z,101788.36
2019-02-27T10:58:13.287Z,101778.85
2019-02-27T10:59:19.668Z,101772.86
2019-02-27T11:00:33.747Z,101771.16
2019-02-27T11:01:40.241Z,101768.30
2019-02-27T11:02:47.914Z,101764.05
2019-02-27T11:03:54.620Z,101752.34
2019-02-27T11:05:00.483Z,101761.34
2019-02-27T11:06:06.480Z,101760.69
2019-02-27T11:07:15.504Z,101760.02
2019-02-27T11:08:19.582Z,101758.27
2019-02-27T11:09:27.466Z,101761.38
2019-02-27T11:10:33.326Z,101760.52
2019-02-27T11:11:42.367Z,101760.91
2019-02-27T11:12:48.065Z,101756.55
2019-02-27T11:13:55.415Z,101752.59
2019-02-27T11:15:01.409Z,101753.05
2019-02-27T11:16:08.324Z,101749.93
2019-02-27T11:17:14.889Z,101750.02
2019-02-27T11:18:21.606Z,101747.07
2019-02-27T11:19:28.226Z,101744.55
2019-02-27T11:20:34.707Z,101737.77
2019-02-27T11:21:40.786Z,101732.55
2019-02-27T11:22:46.983Z,101732.55
2019-02-27T11:23:52.759Z,101725.04
2019-02-27T11:25:00.141Z,101720.48
2019-02-27T11:26:07.604Z,101720.48
2019-02-27T11:27:13.782Z,101719.46
2019-02-27T11:28:20.176Z,101712.98
2019-02-27T11:29:25.858Z,101719.91
2019-02-27T11:30:38.346Z,101719.91
2019-02-27T11:31:45.575Z,101708.21
2019-02-27T11:32:51.767Z,101709.83
2019-02-27T11:33:57.417Z,101709.83
2019-02-27T11:35:03.156Z,101707.47
2019-02-27T11:36:08.909Z,101697.23
2019-02-27T11:37:16.425Z,101704.65
2019-02-27T11:38:24.688Z,101697.42
2019-02-27T11:39:30.497Z,101668.38
2019-02-27T11:40:41.543Z,101694.12
2019-02-27T11:41:46.090Z,101697.66
2019-02-27T11:42:52.260Z,101688.45
2019-02-27T11:43:59.226Z,101689.44
2019-02-27T11:45:08.854Z,101686.41
2019-02-27T11:46:14.782Z,101685.14
2019-02-27T11:47:21.259Z,101675.11
2019-02-27T11:48:27.330Z,101673.45
2019-02-27T11:49:36.294Z,101675.66
2019-02-27T11:50:42.275Z,101665.09
2019-02-27T11:51:50.589Z,101660.77
2019-02-27T11:52:55.811Z,101667.43
2019-02-27T11:54:01.778Z,101663.08
2019-02-27T11:55:11.298Z,101656.08
2019-02-27T11:56:20.323Z,101657.52
2019-02-27T11:57:27.320Z,101650.98
2019-02-27T11:58:39.121Z,101648.42
2019-02-27T11:59:48.307Z,101638.72
2019-02-27T12:00:54.014Z,101634.78
2019-02-27T12:02:00.185Z,101635.76
2019-02-27T12:03:08.552Z,101622.16
2019-02-27T12:04:13.486Z,101619.63
2019-02-27T12:05:19.215Z,101611.71
2019-02-27T12:06:24.903Z,101619.73
2019-02-27T12:07:30.594Z,101617.09
2019-02-27T12:08:37.268Z,101619.34
2019-02-27T12:09:42.899Z,101611.42
2019-02-27T12:10:48.545Z,101609.31
2019-02-27T12:11:54.286Z,101609.88
2019-02-27T12:13:01.180Z,101601.59
2019-02-27T12:14:09.092Z,101606.53
2019-02-27T12:15:20.486Z,101606.56
2019-02-27T12:16:26.449Z,101607.45
2019-02-27T12:17:32.186Z,101602.20
2019-02-27T12:18:38.876Z,101597.32
2019-02-27T12:19:45.309Z,101593.41
2019-02-27T12:20:54.009Z,101590.79
2019-02-27T12:22:00.535Z,101583.70
2019-02-27T12:23:07.450Z,101576.67
2019-02-27T12:24:16.356Z,101580.24
2019-02-27T12:25:26.839Z,101575.44
2019-02-27T12:26:31.089Z,101575.05
2019-02-27T12:27:48.767Z,101569.81
2019-02-27T12:28:45.367Z,101559.66
2019-02-27T12:29:52.184Z,101564.50
2019-02-27T12:30:58.698Z,101560.13
2019-02-27T12:32:06.114Z,101563.72
2019-02-27T12:33:13.020Z,101567.30
2019-02-27T12:34:18.695Z,101555.83
2019-02-27T12:35:30.595Z,101562.51
2019-02-27T12:36:37.248Z,101557.62
2019-02-27T12:37:42.986Z,101553.25
2019-02-27T12:38:48.728Z,101547.97
2019-02-27T12:39:54.975Z,101555.95
2019-02-27T12:41:00.718Z,101544.88
2019-02-27T12:42:06.997Z,101545.80
2019-02-27T12:43:17.268Z,101545.39
2019-02-27T12:44:22.557Z,101541.02
2019-02-27T12:45:29.912Z,101540.12
2019-02-27T12:46:37.035Z,101539.29
2019-02-27T12:47:44.347Z,101536.66
2019-02-27T12:48:50.038Z,101544.20
2019-02-27T12:49:56.950Z,101543.35
2019-02-27T12:51:04.303Z,101535.02
2019-02-27T12:52:12.094Z,101535.02
2019-02-27T12:53:20.816Z,101536.34
2019-02-27T12:54:27.515Z,101534.56
2019-02-27T12:55:36.291Z,101534.56
2019-02-27T12:56:43.328Z,101526.61
2019-02-27T12:57:49.558Z,101540.84
2019-02-27T12:58:58.702Z,101538.16
2019-02-27T13:00:17.516Z,101512.83
2019-02-27T13:01:23.624Z,101512.83
2019-02-27T13:02:35.724Z,101523.95
2019-02-27T13:03:36.699Z,101536.39
2019-02-27T13:04:42.437Z,101532.44
2019-02-27T13:05:48.179Z,101532.03
2019-02-27T13:06:53.924Z,101524.91
2019-02-27T13:07:59.557Z,101523.58
2019-02-27T13:09:06.289Z,101522.26
2019-02-27T13:10:21.694Z,101522.26
2019-02-27T13:11:27.438Z,101520.92
2019-02-27T13:12:33.177Z,101526.69
2019-02-27T13:13:40.048Z,101505.00
2019-02-27T13:14:46.089Z,101505.00
2019-02-27T13:15:52.587Z,101477.89
2019-02-27T13:16:58.287Z,101477.89
2019-02-27T13:18:04.460Z,101476.97